Hindu — WDG6190 — position and weather

sailwx.info

Track history (hours):
 
Tides and Currents Weather Stations Pressure Air Temp Water Temp Dewpoint Dewpoint Depression Visibility Wind Speed Wind Dir Waves Ship Positions

Hindu

Owner: Hindu Charters LLC, Key West, FL. More information available from US FCC via Universal Licensing System and Coast Guard Vessel Documentation Center.

Last reported at 2014-Oct-18 06:20 UTC. Time now 2014-Oct-23 01:38 UTC.
Position N 36°60' W 076°12'.

Length 24 m.

Type: Sailing vessel. MMSI: 367554370.

Date/timePositionNaut miles runAvg speedWind from/ knotsBaromVisibWave heightAir tempDewpointWater temp
2014-Oct-18 06:20N 36°60' W 076°12'3 3.5
2014-Oct-18 05:22N 37°02' W 076°09'93 3.8
2014-Oct-17 05:06N 38°34' W 076°26'2 2.7
2014-Oct-17 04:13N 38°36' W 076°27'0 0.6
2014-Oct-17 03:31N 38°37' W 076°27'1 1.3
2014-Oct-17 02:26N 38°38' W 076°28'1 1.5
2014-Oct-17 01:30N 38°39' W 076°27'1 0.5
2014-Oct-17 00:23N 38°40' W 076°26'1 1.3
2014-Oct-16 23:33N 38°41' W 076°26'3 2.7
2014-Oct-16 22:33N 38°43' W 076°27'3 2.6
2014-Oct-16 21:33N 38°46' W 076°27'3 2.7
2014-Oct-16 20:33N 38°49' W 076°27'3 2.8
2014-Oct-16 19:33N 38°51' W 076°26'  
Track history (hours):
 
Tides and Currents Weather Stations Pressure Air Temp Water Temp Dewpoint Dewpoint Depression Visibility Wind Speed Wind Dir Waves Ship Positions

Hindu

Owner: Hindu Charters LLC, Key West, FL. More information available from US FCC via Universal Licensing System and Coast Guard Vessel Documentation Center.

Last reported at 2014-Oct-18 06:20 UTC. Time now 2014-Oct-23 01:38 UTC.
Position N 36°60' W 076°12'.

Length 24 m.

Type: Sailing vessel. MMSI: 367554370.

Date/timePositionNaut miles runAvg speedWind from/ knotsBaromVisibWave heightAir tempDewpointWater temp
2014-Oct-18 06:20N 36°60' W 076°12'3 3.5
2014-Oct-18 05:22N 37°02' W 076°09'93 3.8
2014-Oct-17 05:06N 38°34' W 076°26'2 2.7
2014-Oct-17 04:13N 38°36' W 076°27'0 0.6
2014-Oct-17 03:31N 38°37' W 076°27'1 1.3
2014-Oct-17 02:26N 38°38' W 076°28'1 1.5
2014-Oct-17 01:30N 38°39' W 076°27'1 0.5
2014-Oct-17 00:23N 38°40' W 076°26'1 1.3
2014-Oct-16 23:33N 38°41' W 076°26'3 2.7
2014-Oct-16 22:33N 38°43' W 076°27'3 2.6
2014-Oct-16 21:33N 38°46' W 076°27'3 2.7
2014-Oct-16 20:33N 38°49' W 076°27'3 2.8
2014-Oct-16 19:33N 38°51' W 076°26'  

Dump ship's entire track history